sensor_id;sensor_type;location;lat;lon;timestamp;P1;durP1;ratioP1;P2;durP2;ratioP2
54167;SDS011;68429;50.958;3.592;2023-05-10T00:01:16;26.73;;;12.05;;
54167;SDS011;68429;50.958;3.592;2023-05-10T00:03:41;23.63;;;11.60;;
54167;SDS011;68429;50.958;3.592;2023-05-10T00:06:07;22.00;;;12.02;;
54167;SDS011;68429;50.958;3.592;2023-05-10T00:08:33;33.03;;;13.48;;
54167;SDS011;68429;50.958;3.592;2023-05-10T00:10:59;26.48;;;12.80;;
54167;SDS011;68429;50.958;3.592;2023-05-10T00:13:25;28.42;;;13.75;;
54167;SDS011;68429;50.958;3.592;2023-05-10T00:15:51;35.15;;;15.50;;
54167;SDS011;68429;50.958;3.592;2023-05-10T00:18:17;31.17;;;15.02;;
54167;SDS011;68429;50.958;3.592;2023-05-10T00:20:43;34.35;;;15.85;;
54167;SDS011;68429;50.958;3.592;2023-05-10T00:23:11;34.83;;;17.08;;
54167;SDS011;68429;50.958;3.592;2023-05-10T00:25:37;34.60;;;18.67;;
54167;SDS011;68429;50.958;3.592;2023-05-10T00:28:03;33.60;;;16.63;;
54167;SDS011;68429;50.958;3.592;2023-05-10T00:30:29;33.42;;;16.58;;
54167;SDS011;68429;50.958;3.592;2023-05-10T00:32:55;35.75;;;17.33;;
54167;SDS011;68429;50.958;3.592;2023-05-10T00:35:21;31.55;;;16.02;;
54167;SDS011;68429;50.958;3.592;2023-05-10T00:37:47;37.67;;;18.45;;
54167;SDS011;68429;50.958;3.592;2023-05-10T00:40:13;36.30;;;17.10;;
54167;SDS011;68429;50.958;3.592;2023-05-10T00:42:39;34.60;;;16.38;;
54167;SDS011;68429;50.958;3.592;2023-05-10T00:45:05;36.88;;;16.85;;
54167;SDS011;68429;50.958;3.592;2023-05-10T00:47:32;35.17;;;17.42;;
54167;SDS011;68429;50.958;3.592;2023-05-10T00:49:59;40.03;;;17.75;;
54167;SDS011;68429;50.958;3.592;2023-05-10T00:52:26;37.25;;;18.00;;
54167;SDS011;68429;50.958;3.592;2023-05-10T00:54:52;44.08;;;18.83;;
54167;SDS011;68429;50.958;3.592;2023-05-10T00:57:19;39.35;;;17.73;;
54167;SDS011;68429;50.958;3.592;2023-05-10T00:59:46;44.80;;;19.65;;
54167;SDS011;68429;50.958;3.592;2023-05-10T01:02:12;39.72;;;19.48;;
54167;SDS011;68429;50.958;3.592;2023-05-10T01:04:38;40.38;;;19.90;;
54167;SDS011;68429;50.958;3.592;2023-05-10T01:07:04;41.28;;;19.45;;
54167;SDS011;68429;50.958;3.592;2023-05-10T01:09:30;44.80;;;20.85;;
54167;SDS011;68429;50.958;3.592;2023-05-10T01:11:57;39.92;;;18.92;;
54167;SDS011;68429;50.958;3.592;2023-05-10T01:14:23;34.33;;;18.20;;
54167;SDS011;68429;50.958;3.592;2023-05-10T01:16:51;46.17;;;18.83;;
54167;SDS011;68429;50.958;3.592;2023-05-10T01:19:28;40.15;;;19.80;;
54167;SDS011;68429;50.958;3.592;2023-05-10T01:22:03;40.78;;;19.25;;
54167;SDS011;68429;50.958;3.592;2023-05-10T01:27:14;61.17;;;21.77;;
54167;SDS011;68429;50.958;3.592;2023-05-10T01:30:05;43.75;;;19.50;;
54167;SDS011;68429;50.958;3.592;2023-05-10T01:35:32;44.47;;;21.08;;
54167;SDS011;68429;50.958;3.592;2023-05-10T01:40:51;49.58;;;22.08;;
54167;SDS011;68429;50.958;3.592;2023-05-10T01:43:36;46.45;;;21.80;;
54167;SDS011;68429;50.958;3.592;2023-05-10T01:46:43;45.72;;;22.27;;
54167;SDS011;68429;50.958;3.592;2023-05-10T01:49:17;41.50;;;21.15;;
54167;SDS011;68429;50.958;3.592;2023-05-10T01:51:52;46.65;;;21.35;;
54167;SDS011;68429;50.958;3.592;2023-05-10T01:54:24;46.90;;;22.35;;
54167;SDS011;68429;50.958;3.592;2023-05-10T01:56:52;43.63;;;21.55;;
54167;SDS011;68429;50.958;3.592;2023-05-10T01:59:24;43.75;;;20.60;;
54167;SDS011;68429;50.958;3.592;2023-05-10T02:01:56;47.22;;;22.70;;
54167;SDS011;68429;50.958;3.592;2023-05-10T02:04:24;41.70;;;21.75;;
54167;SDS011;68429;50.958;3.592;2023-05-10T02:06:52;47.72;;;21.60;;
54167;SDS011;68429;50.958;3.592;2023-05-10T02:09:20;45.35;;;21.05;;
54167;SDS011;68429;50.958;3.592;2023-05-10T02:11:48;45.80;;;22.10;;
54167;SDS011;68429;50.958;3.592;2023-05-10T02:14:15;48.70;;;21.48;;
54167;SDS011;68429;50.958;3.592;2023-05-10T02:16:42;48.70;;;21.85;;
54167;SDS011;68429;50.958;3.592;2023-05-10T02:19:10;39.88;;;21.38;;
54167;SDS011;68429;50.958;3.592;2023-05-10T02:21:39;44.10;;;21.92;;
54167;SDS011;68429;50.958;3.592;2023-05-10T02:24:06;41.60;;;21.02;;
54167;SDS011;68429;50.958;3.592;2023-05-10T02:26:34;38.35;;;19.45;;
54167;SDS011;68429;50.958;3.592;2023-05-10T02:29:02;40.35;;;21.23;;
54167;SDS011;68429;50.958;3.592;2023-05-10T02:31:32;42.05;;;19.20;;
54167;SDS011;68429;50.958;3.592;2023-05-10T02:34:00;36.15;;;20.27;;
54167;SDS011;68429;50.958;3.592;2023-05-10T02:36:28;35.63;;;20.17;;
54167;SDS011;68429;50.958;3.592;2023-05-10T02:38:54;41.83;;;21.70;;
54167;SDS011;68429;50.958;3.592;2023-05-10T02:41:21;44.85;;;24.15;;
54167;SDS011;68429;50.958;3.592;2023-05-10T02:43:50;44.17;;;24.20;;
54167;SDS011;68429;50.958;3.592;2023-05-10T02:46:18;47.10;;;24.25;;
54167;SDS011;68429;50.958;3.592;2023-05-10T02:48:44;50.67;;;25.30;;
54167;SDS011;68429;50.958;3.592;2023-05-10T02:51:10;48.22;;;25.52;;
54167;SDS011;68429;50.958;3.592;2023-05-10T02:53:40;47.55;;;27.70;;
54167;SDS011;68429;50.958;3.592;2023-05-10T02:56:15;43.20;;;25.77;;
54167;SDS011;68429;50.958;3.592;2023-05-10T02:58:50;47.72;;;26.45;;
54167;SDS011;68429;50.958;3.592;2023-05-10T03:01:17;46.65;;;25.70;;
54167;SDS011;68429;50.958;3.592;2023-05-10T03:03:43;48.25;;;25.38;;
54167;SDS011;68429;50.958;3.592;2023-05-10T03:06:08;49.78;;;26.38;;
54167;SDS011;68429;50.958;3.592;2023-05-10T03:08:34;46.33;;;24.95;;
54167;SDS011;68429;50.958;3.592;2023-05-10T03:11:25;45.58;;;25.02;;
54167;SDS011;68429;50.958;3.592;2023-05-10T03:17:11;44.40;;;23.48;;
54167;SDS011;68429;50.958;3.592;2023-05-10T03:19:56;45.80;;;24.17;;
54167;SDS011;68429;50.958;3.592;2023-05-10T03:22:30;49.60;;;26.67;;
54167;SDS011;68429;50.958;3.592;2023-05-10T03:25:00;48.88;;;23.60;;
54167;SDS011;68429;50.958;3.592;2023-05-10T03:27:30;40.38;;;22.95;;
54167;SDS011;68429;50.958;3.592;2023-05-10T03:29:57;45.08;;;24.17;;
54167;SDS011;68429;50.958;3.592;2023-05-10T03:32:23;43.67;;;23.63;;
54167;SDS011;68429;50.958;3.592;2023-05-10T03:34:49;38.75;;;22.95;;
54167;SDS011;68429;50.958;3.592;2023-05-10T03:37:15;44.35;;;22.92;;
54167;SDS011;68429;50.958;3.592;2023-05-10T03:39:41;40.30;;;23.33;;
54167;SDS011;68429;50.958;3.592;2023-05-10T03:42:07;44.88;;;23.55;;
54167;SDS011;68429;50.958;3.592;2023-05-10T03:44:33;39.17;;;23.25;;
54167;SDS011;68429;50.958;3.592;2023-05-10T03:46:59;46.65;;;24.17;;
54167;SDS011;68429;50.958;3.592;2023-05-10T03:49:25;48.35;;;25.08;;
54167;SDS011;68429;50.958;3.592;2023-05-10T03:51:51;47.42;;;23.05;;
54167;SDS011;68429;50.958;3.592;2023-05-10T03:54:17;48.72;;;24.50;;
54167;SDS011;68429;50.958;3.592;2023-05-10T03:56:43;47.10;;;24.80;;
54167;SDS011;68429;50.958;3.592;2023-05-10T03:59:08;45.50;;;25.20;;
54167;SDS011;68429;50.958;3.592;2023-05-10T04:01:35;49.95;;;26.48;;
54167;SDS011;68429;50.958;3.592;2023-05-10T04:04:00;59.38;;;28.70;;
54167;SDS011;68429;50.958;3.592;2023-05-10T04:06:26;59.45;;;30.17;;
54167;SDS011;68429;50.958;3.592;2023-05-10T04:08:52;65.78;;;32.63;;
54167;SDS011;68429;50.958;3.592;2023-05-10T04:11:18;73.43;;;30.75;;
54167;SDS011;68429;50.958;3.592;2023-05-10T04:13:47;56.30;;;29.08;;
54167;SDS011;68429;50.958;3.592;2023-05-10T04:16:13;65.85;;;32.08;;
54167;SDS011;68429;50.958;3.592;2023-05-10T04:18:39;61.88;;;32.60;;
54167;SDS011;68429;50.958;3.592;2023-05-10T04:21:10;74.85;;;33.80;;
54167;SDS011;68429;50.958;3.592;2023-05-10T04:23:37;60.10;;;30.63;;
54167;SDS011;68429;50.958;3.592;2023-05-10T04:26:03;74.63;;;32.45;;
54167;SDS011;68429;50.958;3.592;2023-05-10T04:28:30;80.00;;;31.33;;
54167;SDS011;68429;50.958;3.592;2023-05-10T04:31:06;63.05;;;31.13;;
54167;SDS011;68429;50.958;3.592;2023-05-10T04:33:33;64.60;;;30.30;;
54167;SDS011;68429;50.958;3.592;2023-05-10T04:36:00;69.93;;;30.27;;
54167;SDS011;68429;50.958;3.592;2023-05-10T04:38:27;72.53;;;30.98;;
54167;SDS011;68429;50.958;3.592;2023-05-10T04:40:53;63.67;;;29.80;;
54167;SDS011;68429;50.958;3.592;2023-05-10T04:43:19;68.03;;;32.60;;
54167;SDS011;68429;50.958;3.592;2023-05-10T04:45:45;66.18;;;30.83;;
54167;SDS011;68429;50.958;3.592;2023-05-10T04:48:11;65.10;;;29.70;;
54167;SDS011;68429;50.958;3.592;2023-05-10T04:50:38;60.38;;;30.75;;
54167;SDS011;68429;50.958;3.592;2023-05-10T04:53:04;59.72;;;29.65;;
54167;SDS011;68429;50.958;3.592;2023-05-10T04:55:30;62.47;;;30.45;;
54167;SDS011;68429;50.958;3.592;2023-05-10T04:57:56;67.47;;;29.58;;
54167;SDS011;68429;50.958;3.592;2023-05-10T05:00:24;52.85;;;27.20;;
54167;SDS011;68429;50.958;3.592;2023-05-10T05:02:49;55.78;;;27.95;;
54167;SDS011;68429;50.958;3.592;2023-05-10T05:05:15;57.40;;;28.58;;
54167;SDS011;68429;50.958;3.592;2023-05-10T05:07:41;57.88;;;28.48;;
54167;SDS011;68429;50.958;3.592;2023-05-10T05:10:07;55.85;;;26.42;;
54167;SDS011;68429;50.958;3.592;2023-05-10T05:12:34;53.90;;;24.63;;
54167;SDS011;68429;50.958;3.592;2023-05-10T05:15:00;58.63;;;27.13;;
54167;SDS011;68429;50.958;3.592;2023-05-10T05:17:26;61.22;;;28.30;;
54167;SDS011;68429;50.958;3.592;2023-05-10T05:19:52;54.42;;;25.80;;
54167;SDS011;68429;50.958;3.592;2023-05-10T05:22:19;58.90;;;27.38;;
54167;SDS011;68429;50.958;3.592;2023-05-10T05:24:52;70.60;;;29.27;;
54167;SDS011;68429;50.958;3.592;2023-05-10T05:27:18;60.28;;;27.75;;
54167;SDS011;68429;50.958;3.592;2023-05-10T05:29:46;57.28;;;28.25;;
54167;SDS011;68429;50.958;3.592;2023-05-10T05:32:11;66.35;;;30.13;;
54167;SDS011;68429;50.958;3.592;2023-05-10T05:34:37;68.70;;;30.55;;
54167;SDS011;68429;50.958;3.592;2023-05-10T05:37:04;68.38;;;32.03;;
54167;SDS011;68429;50.958;3.592;2023-05-10T05:39:29;67.15;;;31.83;;
54167;SDS011;68429;50.958;3.592;2023-05-10T05:41:55;67.97;;;33.35;;
54167;SDS011;68429;50.958;3.592;2023-05-10T05:44:22;69.57;;;32.78;;
54167;SDS011;68429;50.958;3.592;2023-05-10T05:46:50;68.65;;;31.67;;
54167;SDS011;68429;50.958;3.592;2023-05-10T05:49:16;76.40;;;32.05;;
54167;SDS011;68429;50.958;3.592;2023-05-10T05:51:42;73.50;;;32.88;;
54167;SDS011;68429;50.958;3.592;2023-05-10T05:54:08;60.15;;;31.80;;
54167;SDS011;68429;50.958;3.592;2023-05-10T05:56:34;73.15;;;32.83;;
54167;SDS011;68429;50.958;3.592;2023-05-10T05:59:00;74.80;;;32.10;;
54167;SDS011;68429;50.958;3.592;2023-05-10T06:01:26;71.80;;;33.58;;
54167;SDS011;68429;50.958;3.592;2023-05-10T06:03:51;69.03;;;31.35;;
54167;SDS011;68429;50.958;3.592;2023-05-10T06:06:17;66.82;;;31.42;;
54167;SDS011;68429;50.958;3.592;2023-05-10T06:08:43;66.55;;;33.33;;
54167;SDS011;68429;50.958;3.592;2023-05-10T06:11:09;64.43;;;32.13;;
54167;SDS011;68429;50.958;3.592;2023-05-10T06:13:35;64.53;;;31.65;;
54167;SDS011;68429;50.958;3.592;2023-05-10T06:16:05;64.47;;;30.83;;
54167;SDS011;68429;50.958;3.592;2023-05-10T06:20:56;57.47;;;29.75;;
54167;SDS011;68429;50.958;3.592;2023-05-10T06:23:22;55.35;;;29.17;;
54167;SDS011;68429;50.958;3.592;2023-05-10T06:25:50;54.53;;;29.42;;
54167;SDS011;68429;50.958;3.592;2023-05-10T06:28:16;54.80;;;29.02;;
54167;SDS011;68429;50.958;3.592;2023-05-10T06:30:42;54.03;;;28.17;;
54167;SDS011;68429;50.958;3.592;2023-05-10T06:33:08;55.05;;;27.75;;
54167;SDS011;68429;50.958;3.592;2023-05-10T06:35:34;62.97;;;29.13;;
54167;SDS011;68429;50.958;3.592;2023-05-10T06:38:00;59.35;;;29.25;;
54167;SDS011;68429;50.958;3.592;2023-05-10T06:40:26;53.92;;;27.42;;
54167;SDS011;68429;50.958;3.592;2023-05-10T06:42:52;57.45;;;29.67;;
54167;SDS011;68429;50.958;3.592;2023-05-10T06:45:18;52.90;;;28.42;;
54167;SDS011;68429;50.958;3.592;2023-05-10T06:47:44;47.30;;;25.30;;
54167;SDS011;68429;50.958;3.592;2023-05-10T06:50:10;47.85;;;25.33;;
54167;SDS011;68429;50.958;3.592;2023-05-10T06:52:37;48.55;;;24.67;;
54167;SDS011;68429;50.958;3.592;2023-05-10T06:55:03;51.95;;;26.60;;
54167;SDS011;68429;50.958;3.592;2023-05-10T06:57:30;51.85;;;24.88;;
54167;SDS011;68429;50.958;3.592;2023-05-10T06:59:57;48.92;;;26.70;;
54167;SDS011;68429;50.958;3.592;2023-05-10T07:02:23;50.92;;;24.65;;
54167;SDS011;68429;50.958;3.592;2023-05-10T07:04:49;46.85;;;24.98;;
54167;SDS011;68429;50.958;3.592;2023-05-10T07:07:17;48.03;;;25.38;;
54167;SDS011;68429;50.958;3.592;2023-05-10T07:09:43;46.00;;;24.25;;
54167;SDS011;68429;50.958;3.592;2023-05-10T07:12:10;47.92;;;25.52;;
54167;SDS011;68429;50.958;3.592;2023-05-10T07:14:36;42.70;;;24.38;;
54167;SDS011;68429;50.958;3.592;2023-05-10T07:17:02;43.92;;;25.38;;
54167;SDS011;68429;50.958;3.592;2023-05-10T07:19:28;41.30;;;23.63;;
54167;SDS011;68429;50.958;3.592;2023-05-10T07:21:54;38.83;;;23.27;;
54167;SDS011;68429;50.958;3.592;2023-05-10T07:24:21;37.50;;;21.75;;
54167;SDS011;68429;50.958;3.592;2023-05-10T07:26:47;36.75;;;21.52;;
54167;SDS011;68429;50.958;3.592;2023-05-10T07:29:13;33.45;;;18.02;;
54167;SDS011;68429;50.958;3.592;2023-05-10T07:31:39;28.75;;;18.60;;
54167;SDS011;68429;50.958;3.592;2023-05-10T07:34:07;33.63;;;19.05;;
54167;SDS011;68429;50.958;3.592;2023-05-10T07:36:33;41.58;;;20.52;;
54167;SDS011;68429;50.958;3.592;2023-05-10T07:38:59;34.05;;;18.50;;
54167;SDS011;68429;50.958;3.592;2023-05-10T07:41:25;31.50;;;17.33;;
54167;SDS011;68429;50.958;3.592;2023-05-10T07:43:51;30.85;;;18.50;;
54167;SDS011;68429;50.958;3.592;2023-05-10T07:46:17;25.95;;;17.40;;
54167;SDS011;68429;50.958;3.592;2023-05-10T07:48:44;27.35;;;15.02;;
54167;SDS011;68429;50.958;3.592;2023-05-10T07:51:11;32.15;;;16.23;;
54167;SDS011;68429;50.958;3.592;2023-05-10T07:53:37;24.70;;;15.18;;
54167;SDS011;68429;50.958;3.592;2023-05-10T07:58:54;32.40;;;15.65;;
54167;SDS011;68429;50.958;3.592;2023-05-10T08:01:20;32.70;;;16.17;;
54167;SDS011;68429;50.958;3.592;2023-05-10T08:03:46;25.35;;;15.48;;
54167;SDS011;68429;50.958;3.592;2023-05-10T08:06:13;26.50;;;15.85;;
54167;SDS011;68429;50.958;3.592;2023-05-10T08:08:40;25.88;;;15.85;;
54167;SDS011;68429;50.958;3.592;2023-05-10T08:11:06;24.88;;;15.68;;
54167;SDS011;68429;50.958;3.592;2023-05-10T08:13:32;28.38;;;14.85;;
54167;SDS011;68429;50.958;3.592;2023-05-10T08:15:59;27.88;;;15.18;;
54167;SDS011;68429;50.958;3.592;2023-05-10T08:18:25;25.38;;;14.80;;
54167;SDS011;68429;50.958;3.592;2023-05-10T08:20:51;25.25;;;15.80;;
54167;SDS011;68429;50.958;3.592;2023-05-10T08:23:17;28.27;;;15.13;;
54167;SDS011;68429;50.958;3.592;2023-05-10T08:25:43;28.13;;;13.75;;
54167;SDS011;68429;50.958;3.592;2023-05-10T08:28:09;25.27;;;14.20;;
54167;SDS011;68429;50.958;3.592;2023-05-10T08:30:35;23.63;;;13.88;;
54167;SDS011;68429;50.958;3.592;2023-05-10T08:33:01;21.10;;;13.43;;
54167;SDS011;68429;50.958;3.592;2023-05-10T08:35:27;24.00;;;14.38;;
54167;SDS011;68429;50.958;3.592;2023-05-10T08:37:53;22.35;;;13.75;;
54167;SDS011;68429;50.958;3.592;2023-05-10T08:40:19;22.90;;;12.75;;
54167;SDS011;68429;50.958;3.592;2023-05-10T08:42:53;24.48;;;14.13;;
54167;SDS011;68429;50.958;3.592;2023-05-10T08:45:27;22.48;;;13.88;;
54167;SDS011;68429;50.958;3.592;2023-05-10T08:48:01;24.73;;;14.27;;
54167;SDS011;68429;50.958;3.592;2023-05-10T08:50:29;21.40;;;12.55;;
54167;SDS011;68429;50.958;3.592;2023-05-10T08:52:55;24.23;;;13.15;;
54167;SDS011;68429;50.958;3.592;2023-05-10T08:55:25;19.67;;;12.40;;
54167;SDS011;68429;50.958;3.592;2023-05-10T08:57:51;21.13;;;12.80;;
54167;SDS011;68429;50.958;3.592;2023-05-10T09:00:17;22.90;;;14.18;;
54167;SDS011;68429;50.958;3.592;2023-05-10T09:02:44;28.55;;;13.95;;
54167;SDS011;68429;50.958;3.592;2023-05-10T09:05:11;25.55;;;15.00;;
54167;SDS011;68429;50.958;3.592;2023-05-10T09:07:37;24.45;;;14.18;;
54167;SDS011;68429;50.958;3.592;2023-05-10T09:10:04;28.15;;;14.40;;
54167;SDS011;68429;50.958;3.592;2023-05-10T09:12:31;21.48;;;13.65;;
54167;SDS011;68429;50.958;3.592;2023-05-10T09:14:57;18.88;;;13.02;;
54167;SDS011;68429;50.958;3.592;2023-05-10T09:17:24;23.10;;;11.90;;
54167;SDS011;68429;50.958;3.592;2023-05-10T09:19:58;17.08;;;11.68;;
54167;SDS011;68429;50.958;3.592;2023-05-10T09:22:25;24.05;;;10.18;;
54167;SDS011;68429;50.958;3.592;2023-05-10T09:25:11;20.08;;;10.38;;
54167;SDS011;68429;50.958;3.592;2023-05-10T09:27:39;18.67;;;10.57;;
54167;SDS011;68429;50.958;3.592;2023-05-10T09:30:05;28.00;;;11.75;;
54167;SDS011;68429;50.958;3.592;2023-05-10T09:32:39;18.38;;;10.32;;
54167;SDS011;68429;50.958;3.592;2023-05-10T09:35:11;16.92;;;9.25;;
54167;SDS011;68429;50.958;3.592;2023-05-10T09:37:48;21.52;;;11.20;;
54167;SDS011;68429;50.958;3.592;2023-05-10T09:40:19;16.48;;;10.02;;
54167;SDS011;68429;50.958;3.592;2023-05-10T09:42:55;19.42;;;9.90;;
54167;SDS011;68429;50.958;3.592;2023-05-10T09:45:26;24.88;;;10.27;;
54167;SDS011;68429;50.958;3.592;2023-05-10T09:47:53;17.02;;;10.13;;
54167;SDS011;68429;50.958;3.592;2023-05-10T09:50:20;21.85;;;10.10;;
54167;SDS011;68429;50.958;3.592;2023-05-10T09:52:50;13.73;;;9.80;;
54167;SDS011;68429;50.958;3.592;2023-05-10T09:55:18;16.13;;;8.77;;
54167;SDS011;68429;50.958;3.592;2023-05-10T09:57:48;18.00;;;9.65;;
54167;SDS011;68429;50.958;3.592;2023-05-10T10:00:23;17.73;;;9.57;;
54167;SDS011;68429;50.958;3.592;2023-05-10T10:02:56;16.65;;;9.48;;
54167;SDS011;68429;50.958;3.592;2023-05-10T10:05:30;15.80;;;9.68;;
54167;SDS011;68429;50.958;3.592;2023-05-10T10:07:57;17.20;;;10.48;;
54167;SDS011;68429;50.958;3.592;2023-05-10T10:10:24;17.92;;;11.60;;
54167;SDS011;68429;50.958;3.592;2023-05-10T10:12:51;22.35;;;13.25;;
54167;SDS011;68429;50.958;3.592;2023-05-10T10:15:17;17.50;;;10.57;;
54167;SDS011;68429;50.958;3.592;2023-05-10T10:17:45;17.35;;;10.85;;
54167;SDS011;68429;50.958;3.592;2023-05-10T10:20:11;19.65;;;10.32;;
54167;SDS011;68429;50.958;3.592;2023-05-10T10:22:38;19.58;;;11.23;;
54167;SDS011;68429;50.958;3.592;2023-05-10T10:25:04;11.40;;;9.38;;
54167;SDS011;68429;50.958;3.592;2023-05-10T10:31:00;13.18;;;9.90;;
54167;SDS011;68429;50.958;3.592;2023-05-10T10:35:59;16.35;;;11.10;;
54167;SDS011;68429;50.958;3.592;2023-05-10T10:41:26;16.65;;;10.52;;
54167;SDS011;68429;50.958;3.592;2023-05-10T10:55:02;15.57;;;12.38;;
54167;SDS011;68429;50.958;3.592;2023-05-10T11:00:22;17.95;;;13.65;;
54167;SDS011;68429;50.958;3.592;2023-05-10T11:03:08;17.85;;;11.77;;
54167;SDS011;68429;50.958;3.592;2023-05-10T11:05:42;18.17;;;12.82;;
54167;SDS011;68429;50.958;3.592;2023-05-10T11:08:33;16.30;;;12.73;;
54167;SDS011;68429;50.958;3.592;2023-05-10T11:11:06;14.35;;;12.63;;
54167;SDS011;68429;50.958;3.592;2023-05-10T11:13:40;17.52;;;12.45;;
54167;SDS011;68429;50.958;3.592;2023-05-10T11:16:11;16.00;;;12.30;;
54167;SDS011;68429;50.958;3.592;2023-05-10T11:21:30;14.65;;;11.60;;
54167;SDS011;68429;50.958;3.592;2023-05-10T11:23:57;18.80;;;12.25;;
54167;SDS011;68429;50.958;3.592;2023-05-10T11:26:24;13.98;;;11.38;;
54167;SDS011;68429;50.958;3.592;2023-05-10T11:28:52;16.85;;;11.90;;
54167;SDS011;68429;50.958;3.592;2023-05-10T11:31:22;16.33;;;12.95;;
54167;SDS011;68429;50.958;3.592;2023-05-10T11:33:49;19.35;;;11.85;;
54167;SDS011;68429;50.958;3.592;2023-05-10T11:36:17;16.98;;;12.68;;
54167;SDS011;68429;50.958;3.592;2023-05-10T11:38:45;16.73;;;11.32;;
54167;SDS011;68429;50.958;3.592;2023-05-10T11:41:12;20.30;;;10.35;;
54167;SDS011;68429;50.958;3.592;2023-05-10T11:43:39;16.80;;;11.95;;
54167;SDS011;68429;50.958;3.592;2023-05-10T11:46:06;18.40;;;11.82;;
54167;SDS011;68429;50.958;3.592;2023-05-10T11:48:36;12.68;;;9.93;;
54167;SDS011;68429;50.958;3.592;2023-05-10T11:51:03;14.70;;;9.88;;
54167;SDS011;68429;50.958;3.592;2023-05-10T11:53:30;13.50;;;10.50;;
54167;SDS011;68429;50.958;3.592;2023-05-10T11:56:04;19.65;;;11.35;;
54167;SDS011;68429;50.958;3.592;2023-05-10T11:58:31;15.80;;;10.77;;
54167;SDS011;68429;50.958;3.592;2023-05-10T12:01:01;17.15;;;10.18;;
54167;SDS011;68429;50.958;3.592;2023-05-10T12:03:28;17.58;;;10.07;;
54167;SDS011;68429;50.958;3.592;2023-05-10T12:05:55;15.90;;;9.30;;
54167;SDS011;68429;50.958;3.592;2023-05-10T12:08:23;17.13;;;11.23;;
54167;SDS011;68429;50.958;3.592;2023-05-10T12:10:51;14.27;;;9.53;;
54167;SDS011;68429;50.958;3.592;2023-05-10T12:13:17;14.52;;;9.80;;
54167;SDS011;68429;50.958;3.592;2023-05-10T12:15:45;18.70;;;10.95;;
54167;SDS011;68429;50.958;3.592;2023-05-10T12:18:12;15.95;;;10.30;;
54167;SDS011;68429;50.958;3.592;2023-05-10T12:20:39;15.38;;;10.35;;
54167;SDS011;68429;50.958;3.592;2023-05-10T12:23:07;19.23;;;10.68;;
54167;SDS011;68429;50.958;3.592;2023-05-10T12:25:38;13.82;;;9.43;;
54167;SDS011;68429;50.958;3.592;2023-05-10T12:28:05;13.80;;;9.45;;
54167;SDS011;68429;50.958;3.592;2023-05-10T12:30:32;14.48;;;9.98;;
54167;SDS011;68429;50.958;3.592;2023-05-10T12:33:01;9.82;;;8.82;;
54167;SDS011;68429;50.958;3.592;2023-05-10T12:35:42;15.73;;;9.95;;
54167;SDS011;68429;50.958;3.592;2023-05-10T12:38:29;15.88;;;10.38;;
54167;SDS011;68429;50.958;3.592;2023-05-10T12:40:58;14.38;;;8.55;;
54167;SDS011;68429;50.958;3.592;2023-05-10T12:43:27;23.75;;;10.93;;
54167;SDS011;68429;50.958;3.592;2023-05-10T12:45:53;16.67;;;12.30;;
54167;SDS011;68429;50.958;3.592;2023-05-10T12:48:19;0.00;;;0.00;;
54167;SDS011;68429;50.958;3.592;2023-05-10T12:50:46;0.10;;;0.10;;
54167;SDS011;68429;50.958;3.592;2023-05-10T12:53:15;0.10;;;0.10;;
54167;SDS011;68429;50.958;3.592;2023-05-10T12:58:08;0.25;;;0.25;;
54167;SDS011;68429;50.958;3.592;2023-05-10T13:00:34;0.45;;;0.40;;
54167;SDS011;68429;50.958;3.592;2023-05-10T13:03:00;0.00;;;0.00;;
54167;SDS011;68429;50.958;3.592;2023-05-10T13:05:25;19.00;;;13.57;;
54167;SDS011;68429;50.958;3.592;2023-05-10T13:07:51;23.70;;;15.65;;
54167;SDS011;68429;50.958;3.592;2023-05-10T13:10:17;28.02;;;16.02;;
54167;SDS011;68429;50.958;3.592;2023-05-10T13:12:43;24.88;;;15.00;;
54167;SDS011;68429;50.958;3.592;2023-05-10T13:15:09;22.83;;;15.25;;
54167;SDS011;68429;50.958;3.592;2023-05-10T13:17:35;28.58;;;15.13;;
54167;SDS011;68429;50.958;3.592;2023-05-10T13:20:04;22.20;;;15.07;;
54167;SDS011;68429;50.958;3.592;2023-05-10T13:22:30;21.50;;;15.63;;
54167;SDS011;68429;50.958;3.592;2023-05-10T13:24:56;30.23;;;15.10;;
54167;SDS011;68429;50.958;3.592;2023-05-10T13:27:22;27.13;;;14.52;;
54167;SDS011;68429;50.958;3.592;2023-05-10T13:29:48;18.42;;;13.57;;
54167;SDS011;68429;50.958;3.592;2023-05-10T13:32:15;20.50;;;14.07;;
54167;SDS011;68429;50.958;3.592;2023-05-10T13:34:41;22.50;;;12.95;;
54167;SDS011;68429;50.958;3.592;2023-05-10T13:37:07;18.23;;;13.32;;
54167;SDS011;68429;50.958;3.592;2023-05-10T13:39:32;20.20;;;12.73;;
54167;SDS011;68429;50.958;3.592;2023-05-10T13:41:59;15.68;;;10.05;;
54167;SDS011;68429;50.958;3.592;2023-05-10T13:44:25;12.38;;;6.47;;
54167;SDS011;68429;50.958;3.592;2023-05-10T13:46:51;12.68;;;4.80;;
54167;SDS011;68429;50.958;3.592;2023-05-10T13:49:17;12.43;;;4.53;;
54167;SDS011;68429;50.958;3.592;2023-05-10T13:51:43;9.88;;;4.60;;
54167;SDS011;68429;50.958;3.592;2023-05-10T13:54:09;44.25;;;7.75;;
54167;SDS011;68429;50.958;3.592;2023-05-10T13:56:35;13.77;;;4.43;;
54167;SDS011;68429;50.958;3.592;2023-05-10T13:59:01;51.10;;;10.02;;
54167;SDS011;68429;50.958;3.592;2023-05-10T14:01:27;12.90;;;3.88;;
54167;SDS011;68429;50.958;3.592;2023-05-10T14:03:53;14.85;;;3.30;;
54167;SDS011;68429;50.958;3.592;2023-05-10T14:06:19;14.45;;;3.53;;
54167;SDS011;68429;50.958;3.592;2023-05-10T14:08:45;5.43;;;2.45;;
54167;SDS011;68429;50.958;3.592;2023-05-10T14:11:11;7.82;;;2.70;;
54167;SDS011;68429;50.958;3.592;2023-05-10T14:13:37;8.45;;;2.25;;
54167;SDS011;68429;50.958;3.592;2023-05-10T14:16:03;7.15;;;3.05;;
54167;SDS011;68429;50.958;3.592;2023-05-10T14:18:29;11.93;;;3.13;;
54167;SDS011;68429;50.958;3.592;2023-05-10T14:20:55;11.88;;;2.92;;
54167;SDS011;68429;50.958;3.592;2023-05-10T14:23:21;9.02;;;2.80;;
54167;SDS011;68429;50.958;3.592;2023-05-10T14:25:51;12.13;;;3.20;;
54167;SDS011;68429;50.958;3.592;2023-05-10T14:28:18;10.38;;;2.78;;
54167;SDS011;68429;50.958;3.592;2023-05-10T14:30:45;6.07;;;2.67;;
54167;SDS011;68429;50.958;3.592;2023-05-10T14:33:11;6.80;;;2.40;;
54167;SDS011;68429;50.958;3.592;2023-05-10T14:35:37;12.20;;;2.72;;
54167;SDS011;68429;50.958;3.592;2023-05-10T14:38:05;12.57;;;3.33;;
54167;SDS011;68429;50.958;3.592;2023-05-10T14:40:31;12.05;;;2.80;;
54167;SDS011;68429;50.958;3.592;2023-05-10T14:42:57;9.88;;;2.58;;
54167;SDS011;68429;50.958;3.592;2023-05-10T14:45:23;10.90;;;3.25;;
54167;SDS011;68429;50.958;3.592;2023-05-10T14:47:49;10.57;;;2.70;;
54167;SDS011;68429;50.958;3.592;2023-05-10T14:50:15;4.25;;;2.13;;
54167;SDS011;68429;50.958;3.592;2023-05-10T14:52:43;15.50;;;2.72;;
54167;SDS011;68429;50.958;3.592;2023-05-10T14:55:09;11.75;;;2.55;;
54167;SDS011;68429;50.958;3.592;2023-05-10T14:57:35;7.05;;;2.40;;
54167;SDS011;68429;50.958;3.592;2023-05-10T15:00:02;7.80;;;2.38;;
54167;SDS011;68429;50.958;3.592;2023-05-10T15:02:29;6.70;;;2.20;;
54167;SDS011;68429;50.958;3.592;2023-05-10T15:04:56;7.32;;;2.53;;
54167;SDS011;68429;50.958;3.592;2023-05-10T15:07:22;7.90;;;2.10;;
54167;SDS011;68429;50.958;3.592;2023-05-10T15:09:49;7.70;;;2.30;;
54167;SDS011;68429;50.958;3.592;2023-05-10T15:12:17;6.47;;;2.08;;
54167;SDS011;68429;50.958;3.592;2023-05-10T15:14:43;6.50;;;2.30;;